Time;durP1;ratioP1;P1;durP2;ratioP2;P2;SDS_P1;SDS_P2;PMS_P1;PMS_P2;Temp;Humidity;BMP_temperature;BMP_pressure;BME280_temperature;BME280_humidity;BME280_pressure;Samples;Min_cycle;Max_cycle;Signal;HPM_P1;HPM_P2
2021/07/03 00:01:24;;;;;;;7.30;2.47;;;;;;;20.31;75.35;99537.45;1775149;79;21102;-83
2021/07/03 00:03:51;;;;;;;8.03;2.60;;;;;;;20.34;75.16;99531.34;1781015;78;21117;-84
2021/07/03 00:06:18;;;;;;;6.60;2.13;;;;;;;20.37;74.98;99533.94;1787340;79;21049;-84
2021/07/03 00:08:46;;;;;;;7.57;2.40;;;;;;;20.38;75.00;99526.01;1777741;78;20871;-73
2021/07/03 00:11:15;;;;;;;10.37;3.00;;;;;;;20.39;74.93;99534.36;1781760;78;21002;-78
2021/07/03 00:13:45;;;;;;;4.70;1.90;;;;;;;20.42;74.80;99525.52;1798844;78;21705;-85
2021/07/03 00:16:11;;;;;;;7.10;2.20;;;;;;;20.46;74.76;99526.97;1784965;77;21005;-85
2021/07/03 00:18:38;;;;;;;6.23;2.50;;;;;;;20.47;74.74;99529.92;1775731;79;21052;-83
2021/07/03 00:21:06;;;;;;;4.77;2.20;;;;;;;20.49;74.74;99538.48;1770837;79;21151;-83
2021/07/03 00:23:32;;;;;;;6.77;2.03;;;;;;;20.52;74.61;99535.11;1771483;79;21517;-84
2021/07/03 00:25:59;;;;;;;8.67;2.60;;;;;;;20.55;74.55;99537.13;1782233;78;21025;-84
2021/07/03 00:28:26;;;;;;;9.20;2.60;;;;;;;20.60;74.66;99535.53;1775094;79;21004;-84
2021/07/03 00:30:53;;;;;;;11.70;3.73;;;;;;;20.64;74.56;99535.04;1785924;79;21072;-81
2021/07/03 00:33:20;;;;;;;9.60;3.40;;;;;;;20.68;74.44;99533.77;1666152;79;10000196;-85
2021/07/03 00:35:46;;;;;;;7.47;3.00;;;;;;;20.68;74.24;99523.70;1785798;79;21457;-83
2021/07/03 00:38:14;;;;;;;10.67;3.50;;;;;;;20.68;73.94;99528.34;1789653;79;21528;-85
2021/07/03 00:40:41;;;;;;;10.47;3.30;;;;;;;20.67;73.79;99530.27;1773787;79;21034;-85
2021/07/03 00:43:08;;;;;;;9.53;3.50;;;;;;;20.68;73.86;99521.56;1793445;79;21084;-85
2021/07/03 00:45:35;;;;;;;10.27;3.40;;;;;;;20.66;73.73;99514.33;1776368;79;21528;-86
2021/07/03 00:48:03;;;;;;;8.33;3.20;;;;;;;20.65;73.83;99510.83;1796648;79;21143;-82
2021/07/03 00:50:31;;;;;;;12.63;3.60;;;;;;;20.66;73.92;99511.04;1767027;79;21025;-81
2021/07/03 00:52:58;;;;;;;8.87;3.30;;;;;;;20.67;74.01;99503.14;1801247;79;20950;-81
2021/07/03 00:55:26;;;;;;;8.13;3.10;;;;;;;20.68;73.95;99499.85;1785558;79;21109;-81
2021/07/03 00:57:53;;;;;;;7.27;3.10;;;;;;;20.68;74.07;99494.42;1773304;79;21533;-82
2021/07/03 01:00:22;;;;;;;8.10;3.33;;;;;;;20.68;74.14;99495.21;1780354;79;21032;-86
2021/07/03 01:02:50;;;;;;;7.63;2.80;;;;;;;20.67;74.24;99496.36;1795223;79;21014;-84
2021/07/03 01:05:17;;;;;;;5.67;3.00;;;;;;;20.70;74.38;99488.09;1780572;79;22232;-85
2021/07/03 01:07:44;;;;;;;9.20;3.10;;;;;;;20.73;74.51;99491.44;1758339;79;21139;-85
2021/07/03 01:10:26;;;;;;;6.77;2.90;;;;;;;20.74;74.52;99488.95;1785243;79;21077;-86
2021/07/03 01:12:56;;;;;;;10.47;3.67;;;;;;;20.79;74.59;99493.53;1780468;79;21029;-84
2021/07/03 01:15:23;;;;;;;8.10;2.90;;;;;;;20.80;74.65;99483.48;1772787;79;21587;-83
2021/07/03 01:17:51;;;;;;;7.37;3.40;;;;;;;20.80;74.66;99482.91;1780229;79;21102;-83
2021/07/03 01:20:17;;;;;;;7.80;3.30;;;;;;;20.82;74.70;99481.98;1776097;79;21788;-84
2021/07/03 01:22:46;;;;;;;5.87;3.27;;;;;;;20.83;74.67;99483.56;1789454;79;21600;-84
2021/07/03 01:25:14;;;;;;;7.73;3.10;;;;;;;20.83;74.61;99484.92;1777916;79;21587;-83
2021/07/03 01:27:41;;;;;;;6.33;2.90;;;;;;;20.85;74.57;99494.84;1785575;79;20976;-83
2021/07/03 01:30:11;;;;;;;7.03;3.40;;;;;;;20.86;74.60;99487.48;1781007;79;21093;-83
2021/07/03 01:32:38;;;;;;;9.20;3.93;;;;;;;20.85;74.68;99492.70;1752086;79;21148;-84
2021/07/03 01:35:06;;;;;;;10.90;3.73;;;;;;;20.75;74.91;99486.45;1791408;79;21382;-83
2021/07/03 01:37:33;;;;;;;9.50;3.80;;;;;;;20.65;75.27;99486.41;1783340;79;21025;-87
2021/07/03 01:40:02;;;;;;;8.47;3.10;;;;;;;20.57;75.64;99484.67;1801495;78;21050;-85
2021/07/03 01:42:29;;;;;;;7.23;3.50;;;;;;;20.56;75.89;99486.58;1769612;80;21022;-84
2021/07/03 01:45:00;;;;;;;6.77;3.23;;;;;;;20.56;76.06;99483.08;1774551;80;21159;-82
2021/07/03 01:47:26;;;;;;;7.20;3.37;;;;;;;20.53;76.28;99477.00;1768766;80;21045;-82
2021/07/03 01:49:55;;;;;;;7.33;3.00;;;;;;;20.49;76.54;99478.23;1767755;80;21018;-82
2021/07/03 01:52:22;;;;;;;5.77;3.30;;;;;;;20.47;76.75;99483.81;1781312;78;21746;-83
2021/07/03 01:54:52;;;;;;;6.07;2.83;;;;;;;20.43;76.93;99489.69;1772903;80;21003;-81
2021/07/03 01:59:54;;;;;;;5.37;2.93;;;;;;;20.36;77.48;99492.44;1808641;77;21995;-75
2021/07/03 02:02:21;;;;;;;5.83;3.40;;;;;;;20.33;77.60;99485.57;1776544;80;21104;-75
2021/07/03 02:04:49;;;;;;;5.63;3.50;;;;;;;20.29;77.69;99486.84;1758637;79;21144;-76
2021/07/03 02:07:16;;;;;;;5.90;3.47;;;;;;;20.28;77.86;99483.91;1771315;80;21130;-75
2021/07/03 02:09:44;;;;;;;6.80;3.53;;;;;;;20.25;78.07;99480.54;1773202;79;21547;-75
2021/07/03 02:12:11;;;;;;;6.27;4.03;;;;;;;20.22;78.35;99478.52;1777222;80;21046;-75
2021/07/03 02:14:45;;;;;;;6.03;3.67;;;;;;;20.23;78.60;99477.38;1759606;80;21589;-75
2021/07/03 02:17:23;;;;;;;7.47;3.70;;;;;;;20.22;78.91;99479.88;1798264;78;21124;-74
2021/07/03 02:19:50;;;;;;;5.20;3.30;;;;;;;20.19;79.24;99479.78;1797114;78;21066;-75
2021/07/03 02:22:18;;;;;;;6.87;3.63;;;;;;;20.12;79.78;99479.03;1792444;78;21071;-74
2021/07/03 02:24:46;;;;;;;4.63;3.20;;;;;;;20.00;80.28;99480.44;1786311;78;21078;-75
2021/07/03 02:27:13;;;;;;;8.23;4.00;;;;;;;19.88;80.76;99486.72;1798489;78;22794;-75
2021/07/03 02:29:42;;;;;;;5.23;3.50;;;;;;;19.81;81.17;99484.60;1803948;78;21050;-74
2021/07/03 02:32:08;;;;;;;7.80;4.00;;;;;;;19.75;81.48;99479.20;1802484;78;21042;-75
2021/07/03 02:34:35;;;;;;;6.73;4.07;;;;;;;19.72;81.76;99483.95;1795016;79;21062;-75
2021/07/03 02:37:03;;;;;;;9.30;4.20;;;;;;;19.69;82.19;99488.70;1801984;78;20972;-75
2021/07/03 02:39:31;;;;;;;7.83;4.00;;;;;;;19.66;82.57;99493.45;1808774;78;21019;-75
2021/07/03 02:41:58;;;;;;;6.37;4.23;;;;;;;19.62;82.97;99495.25;1804907;78;21483;-75
2021/07/03 02:44:25;;;;;;;7.60;4.57;;;;;;;19.61;83.29;99493.65;1792329;78;21030;-75
2021/07/03 02:46:51;;;;;;;7.33;4.20;;;;;;;19.63;83.70;99500.88;1761354;80;21062;-73
2021/07/03 02:49:20;;;;;;;9.00;4.50;;;;;;;19.63;83.90;99500.34;1765485;80;21015;-74
2021/07/03 02:51:47;;;;;;;9.23;5.17;;;;;;;19.65;84.12;99500.01;1774798;80;21072;-75
2021/07/03 02:54:15;;;;;;;9.63;4.83;;;;;;;19.69;84.24;99495.47;1764396;79;21745;-75
2021/07/03 02:56:42;;;;;;;7.77;4.80;;;;;;;19.69;84.42;99485.99;1783256;79;21093;-75
2021/07/03 02:59:09;;;;;;;6.50;4.73;;;;;;;19.68;84.57;99495.27;1782215;79;21601;-75
2021/07/03 03:01:36;;;;;;;7.53;5.00;;;;;;;19.71;84.73;99502.70;1776507;79;21623;-75
2021/07/03 03:04:05;;;;;;;7.97;4.80;;;;;;;19.70;84.83;99506.52;1775275;79;21128;-75
2021/07/03 03:06:33;;;;;;;7.53;4.70;;;;;;;19.69;85.08;99506.31;1778708;79;21068;-75
2021/07/03 03:09:00;;;;;;;7.40;4.87;;;;;;;19.70;85.27;99505.17;1785897;79;21062;-75
2021/07/03 03:11:28;;;;;;;7.80;5.40;;;;;;;19.69;85.64;99510.38;1777539;78;20968;-75
2021/07/03 03:13:56;;;;;;;9.07;5.53;;;;;;;19.74;85.79;99512.05;1785848;78;20968;-75
2021/07/03 03:16:25;;;;;;;6.70;4.87;;;;;;;19.77;85.80;99502.66;1787480;79;21010;-75
2021/07/03 03:18:55;;;;;;;8.03;5.03;;;;;;;19.81;85.79;99498.16;1781093;79;21030;-75
2021/07/03 03:21:22;;;;;;;7.47;5.07;;;;;;;19.82;85.72;99502.43;1785978;79;21514;-75
2021/07/03 03:23:50;;;;;;;8.33;5.47;;;;;;;19.87;85.68;99500.84;1780997;79;21517;-75
2021/07/03 03:26:17;;;;;;;10.77;5.37;;;;;;;19.94;85.65;99504.31;1782346;79;21091;-75
2021/07/03 03:28:44;;;;;;;6.50;5.00;;;;;;;20.02;85.46;99508.78;1789025;79;21077;-76
2021/07/03 03:31:11;;;;;;;8.17;5.10;;;;;;;20.07;85.29;99509.91;1779337;79;21753;-76
2021/07/03 03:33:40;;;;;;;8.50;5.70;;;;;;;20.11;85.23;99516.77;1778518;79;20947;-76
2021/07/03 03:36:07;;;;;;;9.13;5.20;;;;;;;20.21;85.09;99517.62;1767686;79;20991;-75
2021/07/03 03:38:34;;;;;;;6.43;4.90;;;;;;;20.26;84.83;99518.72;1794646;79;21012;-75
2021/07/03 03:41:02;;;;;;;9.30;5.53;;;;;;;20.29;84.81;99517.23;1767202;80;20952;-74
2021/07/03 03:43:29;;;;;;;7.87;5.73;;;;;;;20.31;84.88;99511.70;1782179;79;21116;-75
2021/07/03 03:45:57;;;;;;;7.80;5.40;;;;;;;20.34;84.63;99514.28;1788361;79;21540;-77
2021/07/03 03:48:24;;;;;;;8.47;5.73;;;;;;;20.39;84.40;99516.73;1803634;77;21163;-75
2021/07/03 03:50:52;;;;;;;8.37;5.80;;;;;;;20.46;84.28;99520.19;1797149;78;20996;-76
2021/07/03 03:53:21;;;;;;;7.13;5.40;;;;;;;20.57;84.08;99513.95;1792631;79;21543;-76
2021/07/03 03:55:48;;;;;;;10.17;5.77;;;;;;;20.70;83.75;99513.30;1794064;78;21648;-76
2021/07/03 03:58:15;;;;;;;8.17;5.60;;;;;;;20.77;83.29;99514.04;1794540;78;21067;-75
2021/07/03 04:00:44;;;;;;;10.27;5.83;;;;;;;20.80;82.93;99516.05;1768255;79;22377;-75
2021/07/03 04:03:11;;;;;;;11.53;6.27;;;;;;;20.85;82.65;99516.55;1771486;80;20979;-75
2021/07/03 04:05:44;;;;;;;8.03;6.00;;;;;;;20.90;82.37;99520.17;1756593;80;20984;-75
2021/07/03 04:08:11;;;;;;;8.43;5.70;;;;;;;20.90;82.14;99515.52;1769350;79;22039;-75
2021/07/03 04:10:39;;;;;;;8.43;5.80;;;;;;;20.91;81.87;99518.45;1784024;78;21048;-76
2021/07/03 04:13:06;;;;;;;8.27;5.47;;;;;;;20.95;81.81;99518.53;1785383;79;21066;-75
2021/07/03 04:15:32;;;;;;;10.43;5.50;;;;;;;21.02;81.64;99508.61;1785922;79;20999;-75
2021/07/03 04:17:59;;;;;;;7.47;5.67;;;;;;;21.11;81.47;99512.51;1767644;79;21481;-77
2021/07/03 04:20:26;;;;;;;9.03;6.23;;;;;;;21.11;81.47;99513.08;1779040;79;21120;-75
2021/07/03 04:22:53;;;;;;;8.40;5.93;;;;;;;21.15;81.46;99512.59;1775958;79;21093;-76
2021/07/03 04:25:20;;;;;;;8.43;5.90;;;;;;;21.24;81.20;99518.05;1780371;79;21066;-75
2021/07/03 04:27:48;;;;;;;8.37;5.87;;;;;;;21.32;81.01;99518.98;1767035;79;20999;-75
2021/07/03 04:30:16;;;;;;;9.00;6.30;;;;;;;21.36;80.73;99515.83;1779074;79;21057;-75
2021/07/03 04:32:45;;;;;;;8.47;5.97;;;;;;;21.40;80.51;99513.19;1770961;78;21065;-75
2021/07/03 04:35:13;;;;;;;7.43;6.00;;;;;;;21.50;80.28;99513.41;1769693;79;20944;-75
2021/07/03 04:37:40;;;;;;;8.03;6.27;;;;;;;21.64;79.96;99508.84;1773124;79;21093;-76
2021/07/03 04:40:09;;;;;;;7.13;6.10;;;;;;;21.75;79.31;99507.15;1787920;79;21098;-76
2021/07/03 04:42:35;;;;;;;7.20;5.83;;;;;;;21.84;78.93;99503.41;1786583;79;21073;-76
2021/07/03 04:45:06;;;;;;;11.37;6.10;;;;;;;21.92;78.57;99505.14;1792663;79;21101;-74
2021/07/03 04:47:34;;;;;;;8.33;5.90;;;;;;;21.92;78.44;99507.86;1787629;79;21069;-75
2021/07/03 04:50:02;;;;;;;7.03;6.33;;;;;;;21.95;78.33;99505.78;1773149;79;21015;-76
2021/07/03 04:52:29;;;;;;;8.57;6.30;;;;;;;22.08;78.14;99501.77;1803637;79;21031;-75
2021/07/03 04:54:58;;;;;;;10.70;6.60;;;;;;;22.27;77.83;99500.17;1797790;79;21482;-76
2021/07/03 04:57:25;;;;;;;8.73;6.00;;;;;;;22.43;77.24;99496.20;1632011;80;10000158;-75
2021/07/03 04:59:52;;;;;;;9.40;7.07;;;;;;;22.60;76.27;99493.56;1763617;80;21114;-75
2021/07/03 05:02:20;;;;;;;9.83;6.57;;;;;;;22.71;75.66;99495.90;1788510;79;21089;-76
2021/07/03 05:04:48;;;;;;;10.73;7.33;;;;;;;22.89;75.56;99496.75;1773263;79;21061;-76
2021/07/03 05:07:15;;;;;;;8.57;7.67;;;;;;;23.09;74.70;99499.61;1782190;79;21543;-74
2021/07/03 05:09:43;;;;;;;11.47;7.47;;;;;;;23.26;73.86;99498.29;1753009;80;21236;-75
2021/07/03 05:12:10;;;;;;;10.47;7.90;;;;;;;23.47;72.87;99490.22;1803951;78;21019;-78
2021/07/03 05:14:38;;;;;;;12.00;7.77;;;;;;;23.67;72.03;99486.77;1796093;78;21117;-73
2021/07/03 05:17:05;;;;;;;11.00;7.80;;;;;;;23.86;70.11;99496.18;1802551;78;21090;-73
2021/07/03 05:19:34;;;;;;;9.70;7.40;;;;;;;23.82;69.22;99500.78;1783702;79;21972;-73
2021/07/03 05:22:01;;;;;;;8.73;7.63;;;;;;;23.86;68.87;99507.88;1781961;79;21488;-72
2021/07/03 05:24:28;;;;;;;9.20;8.17;;;;;;;23.90;68.44;99509.86;1768933;79;21331;-73
2021/07/03 05:26:54;;;;;;;12.83;9.07;;;;;;;23.91;67.97;99506.74;1775639;79;21010;-72
2021/07/03 05:29:21;;;;;;;10.47;8.90;;;;;;;23.93;67.34;99502.30;1774168;79;21042;-74
2021/07/03 05:31:48;;;;;;;10.77;9.67;;;;;;;23.92;67.37;99504.21;1780529;79;21129;-73
2021/07/03 05:34:14;;;;;;;11.10;9.10;;;;;;;23.97;67.27;99507.98;1785084;79;21034;-73
2021/07/03 05:36:45;;;;;;;10.50;9.10;;;;;;;23.99;67.15;99511.14;1767330;78;21122;-73
2021/07/03 05:39:11;;;;;;;11.53;9.17;;;;;;;24.03;67.26;99508.44;1783504;79;21051;-73
2021/07/03 05:41:37;;;;;;;11.97;9.37;;;;;;;24.06;66.89;99507.12;1783917;78;21050;-72
2021/07/03 05:44:05;;;;;;;10.43;8.67;;;;;;;24.18;67.12;99507.42;1773897;79;21147;-72
2021/07/03 05:46:32;;;;;;;12.53;11.03;;;;;;;24.36;66.67;99505.47;1771211;79;21546;-72
2021/07/03 05:48:59;;;;;;;10.80;9.80;;;;;;;24.45;66.05;99501.86;1779637;79;21058;-73
2021/07/03 05:51:27;;;;;;;9.67;8.67;;;;;;;24.56;65.39;99505.48;1800309;78;21031;-72
2021/07/03 05:53:55;;;;;;;11.37;9.97;;;;;;;24.66;64.78;99512.20;1777613;79;21045;-73
2021/07/03 05:56:22;;;;;;;9.90;8.80;;;;;;;24.77;64.08;99518.52;1762150;80;21521;-73
2021/07/03 05:58:49;;;;;;;10.90;9.70;;;;;;;24.92;63.80;99516.11;1777512;79;21042;-74
2021/07/03 06:01:15;;;;;;;10.03;9.03;;;;;;;25.08;63.57;99517.20;1775636;78;21069;-73
2021/07/03 06:03:42;;;;;;;10.50;9.43;;;;;;;25.18;63.15;99513.02;1765044;79;20999;-73
2021/07/03 06:06:10;;;;;;;10.27;9.17;;;;;;;25.24;62.53;99515.59;1773922;80;21553;-73
2021/07/03 06:08:37;;;;;;;10.67;8.40;;;;;;;25.31;62.08;99515.63;1763598;79;21623;-73
2021/07/03 06:11:04;;;;;;;9.97;8.97;;;;;;;25.44;61.88;99516.09;1769650;79;21576;-73
2021/07/03 06:13:31;;;;;;;10.27;8.27;;;;;;;25.37;61.51;99513.30;1780617;79;21021;-74
2021/07/03 06:15:58;;;;;;;8.57;7.67;;;;;;;25.29;61.92;99515.21;1766435;79;21588;-72
2021/07/03 06:18:26;;;;;;;10.90;8.93;;;;;;;25.29;62.34;99507.60;1807681;78;21141;-74
2021/07/03 06:20:52;;;;;;;8.87;7.97;;;;;;;25.24;62.25;99504.66;1802646;77;21691;-73
2021/07/03 06:23:19;;;;;;;9.53;8.53;;;;;;;25.20;61.96;99503.24;1800792;78;21090;-72
2021/07/03 06:25:46;;;;;;;9.93;8.93;;;;;;;25.06;62.39;99492.20;1792795;78;21533;-72
2021/07/03 06:28:13;;;;;;;9.90;8.73;;;;;;;25.02;62.67;99493.55;1751070;80;21130;-72
2021/07/03 06:30:40;;;;;;;9.93;8.90;;;;;;;25.04;62.49;99491.23;1790825;79;21054;-73
2021/07/03 06:33:07;;;;;;;9.60;8.63;;;;;;;25.04;62.18;99489.87;1778538;79;21126;-74
2021/07/03 06:35:34;;;;;;;10.00;8.30;;;;;;;25.11;62.45;99496.55;1778844;78;21038;-73
2021/07/03 06:38:01;;;;;;;10.50;8.83;;;;;;;25.13;62.28;99494.23;1798665;78;21109;-73
2021/07/03 06:40:27;;;;;;;10.60;8.83;;;;;;;25.15;61.63;99494.64;1767137;80;21074;-72
2021/07/03 06:42:54;;;;;;;9.20;8.30;;;;;;;25.02;61.99;99492.77;1778854;79;21097;-73
2021/07/03 06:45:21;;;;;;;10.40;9.23;;;;;;;25.03;61.57;99492.38;1792839;79;21657;-73
2021/07/03 06:47:48;;;;;;;9.47;8.57;;;;;;;25.06;61.95;99491.42;1795530;78;21070;-73
2021/07/03 06:50:14;;;;;;;9.60;8.57;;;;;;;25.14;61.86;99496.59;1782258;79;21613;-71
2021/07/03 06:52:41;;;;;;;10.17;8.50;;;;;;;25.27;61.30;99499.77;1801615;78;21062;-73
2021/07/03 06:55:08;;;;;;;8.80;8.00;;;;;;;25.34;61.05;99503.94;1794087;79;21596;-72
2021/07/03 06:57:35;;;;;;;8.97;7.73;;;;;;;25.27;61.02;99506.60;1796144;78;21959;-74
2021/07/03 07:00:06;;;;;;;9.20;7.97;;;;;;;25.27;60.85;99506.60;1765862;79;21047;-72
2021/07/03 07:02:32;;;;;;;8.43;7.60;;;;;;;25.26;60.54;99509.92;1764020;80;28330;-72
2021/07/03 07:04:59;;;;;;;9.83;7.80;;;;;;;25.01;60.00;99513.84;1801783;79;21086;-73
2021/07/03 07:07:26;;;;;;;8.73;7.83;;;;;;;24.69;60.73;99512.23;1764369;79;21081;-73
2021/07/03 07:09:53;;;;;;;9.37;8.47;;;;;;;24.47;61.85;99515.34;1755486;80;21775;-73
2021/07/03 07:12:19;;;;;;;9.77;8.40;;;;;;;24.28;62.49;99512.78;1774054;79;21204;-74
2021/07/03 07:14:48;;;;;;;9.40;8.47;;;;;;;24.28;63.06;99520.41;1779370;78;21059;-74
2021/07/03 07:17:16;;;;;;;9.27;8.33;;;;;;;24.38;63.04;99516.19;1790415;79;21038;-73
2021/07/03 07:19:44;;;;;;;9.60;8.13;;;;;;;24.59;63.18;99514.88;1771753;79;21048;-73
2021/07/03 07:22:10;;;;;;;10.27;8.40;;;;;;;24.86;62.78;99517.62;1781392;78;21319;-73
2021/07/03 07:24:37;;;;;;;9.03;8.13;;;;;;;25.12;62.22;99519.99;1780031;79;21101;-72
2021/07/03 07:29:30;;;;;;;8.57;7.63;;;;;;;25.53;60.68;99519.83;1781128;79;26448;-73
2021/07/03 07:31:56;;;;;;;7.77;6.97;;;;;;;25.68;59.55;99523.62;1736414;81;21158;-73
2021/07/03 07:34:23;;;;;;;6.93;6.23;;;;;;;25.91;59.28;99524.72;1728555;80;21187;-73
2021/07/03 07:36:56;;;;;;;7.47;5.97;;;;;;;26.16;58.54;99519.92;1723799;82;20968;-73
2021/07/03 07:39:21;;;;;;;6.80;6.10;;;;;;;26.31;57.87;99521.49;1733815;81;21051;-74
2021/07/03 07:41:47;;;;;;;6.87;6.17;;;;;;;26.47;55.97;99525.83;1735327;81;21011;-74
2021/07/03 07:44:14;;;;;;;6.70;6.10;;;;;;;26.51;55.37;99521.94;1731195;82;21498;-74
2021/07/03 07:46:41;;;;;;;6.70;5.83;;;;;;;26.61;55.93;99519.02;1740648;81;21550;-73
2021/07/03 07:49:08;;;;;;;7.57;6.00;;;;;;;26.71;55.71;99518.23;1725096;81;21071;-73
2021/07/03 07:51:34;;;;;;;6.50;5.37;;;;;;;26.86;55.02;99517.66;1737992;82;21062;-74
2021/07/03 07:54:01;;;;;;;6.10;4.90;;;;;;;26.96;53.33;99517.45;1730462;82;21688;-76
2021/07/03 07:56:27;;;;;;;6.10;5.13;;;;;;;26.99;52.59;99515.30;1731889;80;21093;-77
2021/07/03 07:58:54;;;;;;;6.23;5.43;;;;;;;27.06;51.92;99516.66;1736074;82;21548;-75
2021/07/03 08:01:24;;;;;;;5.57;4.97;;;;;;;26.97;52.65;99516.27;1729060;82;21141;-74
2021/07/03 08:03:50;;;;;;;5.03;4.43;;;;;;;26.95;52.68;99521.35;1735863;82;21055;-74
2021/07/03 08:06:17;;;;;;;6.00;4.87;;;;;;;26.93;52.27;99517.65;1731088;82;21000;-75
2021/07/03 08:08:44;;;;;;;6.47;5.27;;;;;;;26.95;51.60;99517.23;1703021;82;20998;-76
2021/07/03 08:11:11;;;;;;;7.83;5.57;;;;;;;26.86;51.48;99514.92;1694511;83;21094;-75
2021/07/03 08:13:38;;;;;;;5.40;4.90;;;;;;;26.85;52.07;99515.52;1700133;83;21061;-72
2021/07/03 08:16:05;;;;;;;5.90;5.07;;;;;;;26.90;52.02;99515.09;1689440;84;21070;-73
2021/07/03 08:18:32;;;;;;;5.70;4.57;;;;;;;26.92;51.67;99524.88;1685477;84;21030;-75
2021/07/03 08:20:58;;;;;;;5.30;4.47;;;;;;;26.92;51.98;99522.13;1688408;84;21090;-76
2021/07/03 08:23:25;;;;;;;5.90;4.83;;;;;;;27.10;51.51;99520.17;1702192;82;21129;-73
2021/07/03 08:25:51;;;;;;;6.17;5.10;;;;;;;27.36;50.24;99522.49;1696487;82;21538;-75
2021/07/03 08:28:18;;;;;;;6.13;4.50;;;;;;;27.41;50.10;99520.52;1679460;82;21145;-75
2021/07/03 08:30:45;;;;;;;5.73;4.67;;;;;;;27.48;49.74;99528.75;1672998;84;21058;-74
2021/07/03 08:33:11;;;;;;;5.43;4.70;;;;;;;27.66;50.28;99526.71;1678776;84;21703;-76
2021/07/03 08:35:38;;;;;;;6.37;4.40;;;;;;;27.95;50.60;99530.15;1681154;84;21499;-75
2021/07/03 08:38:04;;;;;;;6.87;5.33;;;;;;;28.23;49.31;99523.73;1676401;84;21055;-74
2021/07/03 08:40:31;;;;;;;5.97;4.40;;;;;;;28.29;47.36;99524.07;1667252;84;21114;-74
2021/07/03 08:42:58;;;;;;;5.13;4.53;;;;;;;28.14;48.02;99526.73;1677148;84;21107;-75
2021/07/03 08:45:24;;;;;;;6.43;4.70;;;;;;;28.03;47.84;99524.80;1678290;84;21201;-74
2021/07/03 08:47:51;;;;;;;5.70;4.87;;;;;;;28.03;48.26;99526.77;1681596;84;22188;-74
2021/07/03 08:50:19;;;;;;;6.37;5.77;;;;;;;28.15;47.63;99529.66;1676207;84;21115;-74
2021/07/03 08:52:46;;;;;;;9.13;5.60;;;;;;;28.24;47.36;99526.66;1682936;84;21122;-75
2021/07/03 08:55:22;;;;;;;6.17;5.37;;;;;;;28.29;47.39;99517.20;1678838;84;21055;-74
2021/07/03 08:57:52;;;;;;;6.33;5.73;;;;;;;28.33;47.87;99519.33;1672500;84;21774;-74
2021/07/03 09:00:25;;;;;;;8.98;6.15;;;;;;;28.21;48.82;99515.10;1688907;84;21178;-74
2021/07/03 09:02:52;;;;;;;6.53;5.87;;;;;;;28.22;49.67;99507.64;1682510;84;21178;-74
2021/07/03 09:05:26;;;;;;;7.27;6.07;;;;;;;28.27;49.82;99508.61;1683062;84;21055;-74
2021/07/03 09:08:06;;;;;;;7.80;5.93;;;;;;;28.24;49.21;99510.19;1694772;84;21189;-75
2021/07/03 09:10:35;;;;;;;6.33;5.10;;;;;;;28.07;49.26;99508.34;1672321;83;21130;-74
2021/07/03 09:13:03;;;;;;;6.03;5.43;;;;;;;28.10;49.75;99506.16;1671778;83;22215;-74
2021/07/03 09:15:34;;;;;;;6.50;5.47;;;;;;;28.13;48.97;99505.93;1679580;84;21028;-74
2021/07/03 09:18:04;;;;;;;7.58;6.72;;;;;;;28.02;50.14;99498.55;1693935;84;21131;-75
2021/07/03 09:20:51;;;;;;;9.43;7.80;;;;;;;28.12;50.22;99501.62;1668991;84;21644;-73
2021/07/03 09:23:32;;;;;;;7.50;6.67;;;;;;;28.11;50.02;99499.48;1673595;83;21098;-74
2021/07/03 09:26:02;;;;;;;;;;;;;;;28.19;50.22;99507.85;1684722;84;21166;-76
2021/07/03 09:28:36;;;;;;;7.22;6.28;;;;;;;28.24;49.24;99515.67;1674692;84;20646;-74
2021/07/03 09:31:03;;;;;;;5.80;5.20;;;;;;;27.98;49.17;99513.48;1669859;84;21147;-74
2021/07/03 09:33:34;;;;;;;9.93;6.13;;;;;;;27.89;49.30;99513.13;1680651;84;21142;-74
2021/07/03 09:36:05;;;;;;;7.43;5.90;;;;;;;27.90;49.50;99516.05;1678384;84;21114;-74
2021/07/03 09:38:41;;;;;;;7.93;5.60;;;;;;;27.87;49.38;99518.22;1675592;84;21197;-74
2021/07/03 09:41:13;;;;;;;8.23;6.10;;;;;;;27.81;50.01;99521.39;1684361;84;21574;-74
2021/07/03 09:43:54;;;;;;;6.47;5.77;;;;;;;27.99;50.79;99512.28;1680523;84;21126;-74
2021/07/03 09:46:26;;;;;;;6.03;5.25;;;;;;;28.32;50.57;99512.87;1684302;84;21105;-74
2021/07/03 09:49:12;;;;;;;6.40;5.80;;;;;;;28.69;50.08;99511.66;1681252;84;21142;-74
2021/07/03 09:51:45;;;;;;;7.60;5.97;;;;;;;28.91;48.75;99508.71;1668083;84;21157;-75
2021/07/03 09:54:13;;;;;;;8.30;5.80;;;;;;;28.90;48.86;99508.53;1676880;84;21146;-72
2021/07/03 09:56:40;;;;;;;7.43;6.23;;;;;;;28.88;48.08;99512.27;1682536;84;21087;-72
2021/07/03 09:59:07;;;;;;;6.47;5.33;;;;;;;28.84;47.78;99517.03;1687299;81;21005;-73
2021/07/03 10:01:35;;;;;;;6.12;5.53;;;;;;;28.61;48.43;99509.37;1667826;86;21083;-73
2021/07/03 10:04:04;;;;;;;6.37;4.72;;;;;;;28.48;49.68;99516.71;1673837;84;21539;-74
2021/07/03 10:06:47;;;;;;;5.87;4.50;;;;;;;28.61;48.71;99508.77;1687860;84;21071;-72
2021/07/03 10:09:25;;;;;;;5.72;4.95;;;;;;;28.78;47.30;99511.77;1708481;82;21202;-74
2021/07/03 10:11:56;;;;;;;6.13;5.43;;;;;;;28.85;50.00;99505.61;1713183;82;21060;-73
2021/07/03 10:14:23;;;;;;;7.47;5.40;;;;;;;28.80;50.93;99499.80;1723936;81;21546;-74
2021/07/03 10:17:02;;;;;;;6.28;5.55;;;;;;;28.69;52.10;99492.42;1718254;82;21265;-73
2021/07/03 10:19:36;;;;;;;7.37;6.23;;;;;;;28.51;52.63;99482.94;1707447;82;21546;-74
2021/07/03 10:22:17;;;;;;;7.33;5.62;;;;;;;28.44;52.05;99480.85;1725548;82;20940;-76
2021/07/03 10:24:52;;;;;;;8.28;6.03;;;;;;;28.40;53.08;99475.98;1714486;81;21173;-74
2021/07/03 10:27:26;;;;;;;8.08;6.10;;;;;;;28.49;53.42;99472.16;1728760;82;21117;-74
2021/07/03 10:29:55;;;;;;;4.80;4.30;;;;;;;28.45;53.24;99472.20;1707035;82;21054;-74
2021/07/03 10:32:33;;;;;;;5.75;3.67;;;;;;;28.40;50.82;99475.39;1711860;82;21134;-76
2021/07/03 10:35:22;;;;;;;7.50;3.90;;;;;;;28.33;49.02;99478.13;1714150;82;21545;-74
2021/07/03 10:37:51;;;;;;;5.40;4.22;;;;;;;28.23;48.80;99481.73;1707061;82;21585;-75
2021/07/03 10:40:29;;;;;;;6.15;4.87;;;;;;;28.23;49.47;99482.55;1710821;82;21514;-73
2021/07/03 10:43:08;;;;;;;5.80;4.07;;;;;;;28.37;49.27;99498.73;1704986;82;21348;-73
2021/07/03 10:45:53;;;;;;;5.55;4.78;;;;;;;28.50;49.52;99497.09;1713942;82;21561;-74
2021/07/03 10:48:25;;;;;;;6.47;5.47;;;;;;;28.69;49.29;99503.98;1713322;82;21550;-75
2021/07/03 10:50:55;;;;;;;5.85;5.17;;;;;;;28.86;48.30;99495.39;1724589;82;20996;-74
2021/07/03 10:53:31;;;;;;;5.08;4.12;;;;;;;28.84;48.33;99489.55;1709053;82;21059;-74
2021/07/03 10:56:11;;;;;;;7.00;4.20;;;;;;;28.81;48.21;99491.13;1722225;82;21068;-74
2021/07/03 10:58:40;;;;;;;5.20;3.90;;;;;;;28.84;47.72;99485.42;1701860;82;21426;-74
2021/07/03 11:01:14;;;;;;;5.67;4.20;;;;;;;28.85;47.66;99500.72;1718573;82;21047;-73
2021/07/03 11:03:50;;;;;;;4.58;3.98;;;;;;;28.80;45.55;99495.08;1705241;82;21091;-74
2021/07/03 11:06:21;;;;;;;4.62;3.62;;;;;;;28.69;46.40;99495.17;1715293;82;21075;-73
2021/07/03 11:08:49;;;;;;;5.50;3.70;;;;;;;28.62;46.11;99491.09;1712472;82;21532;-74
2021/07/03 11:11:17;;;;;;;4.70;3.08;;;;;;;28.61;46.01;99490.14;1716745;82;22356;-74
2021/07/03 11:13:46;;;;;;;4.12;3.45;;;;;;;28.60;45.09;99485.83;1708348;82;21555;-75
2021/07/03 11:16:14;;;;;;;5.37;3.30;;;;;;;28.65;44.84;99486.76;1725286;82;21523;-73
2021/07/03 11:18:43;;;;;;;4.93;3.70;;;;;;;28.68;45.53;99484.58;1715511;82;21645;-74
2021/07/03 11:21:11;;;;;;;5.22;4.12;;;;;;;28.67;46.03;99486.55;1686045;84;21517;-74
2021/07/03 11:23:38;;;;;;;4.30;3.55;;;;;;;28.75;45.34;99487.25;1719470;82;21055;-74
2021/07/03 11:26:11;;;;;;;4.85;3.75;;;;;;;28.87;45.07;99476.36;1702032;82;21605;-74
2021/07/03 11:28:38;;;;;;;4.83;3.80;;;;;;;28.88;45.44;99482.03;1719203;82;21044;-74
2021/07/03 11:31:05;;;;;;;4.33;3.60;;;;;;;28.86;45.86;99481.09;1716764;82;21248;-74
2021/07/03 11:33:34;;;;;;;6.50;4.33;;;;;;;28.99;47.10;99478.61;1713808;82;21130;-73
2021/07/03 11:36:02;;;;;;;5.37;4.65;;;;;;;29.13;49.82;99473.58;1717966;82;21462;-74
2021/07/03 11:38:28;;;;;;;6.80;4.53;;;;;;;29.22;50.18;99471.12;1721226;82;21051;-73
2021/07/03 11:40:57;;;;;;;5.37;4.33;;;;;;;29.35;49.89;99475.48;1713284;82;21024;-74
2021/07/03 11:43:24;;;;;;;4.65;4.08;;;;;;;29.33;48.49;99468.25;1721803;82;21517;-74